createdAt,value
2019-03-22T00:02:14.470Z,103170.58
2019-03-22T00:04:44.236Z,103173.55
2019-03-22T00:07:13.973Z,103178.05
2019-03-22T00:09:43.670Z,103173.72
2019-03-22T00:12:13.409Z,103169.68
2019-03-22T00:14:43.121Z,103174.75
2019-03-22T00:17:12.853Z,103175.66
2019-03-22T00:19:42.571Z,103167.03
2019-03-22T00:22:12.293Z,103161.19
2019-03-22T00:24:42.033Z,103162.97
2019-03-22T00:27:16.533Z,103157.66
2019-03-22T00:29:43.183Z,103160.70
2019-03-22T00:32:12.905Z,103158.00
2019-03-22T00:34:42.649Z,103153.19
2019-03-22T00:37:12.394Z,103155.34
2019-03-22T00:39:42.096Z,103151.73
2019-03-22T00:42:16.385Z,103150.78
2019-03-22T00:44:46.084Z,103166.73
2019-03-22T00:47:15.847Z,103169.68
2019-03-22T00:49:45.590Z,103177.11
2019-03-22T00:55:25.681Z,103182.55
2019-03-22T00:57:55.381Z,103187.03
2019-03-22T01:00:25.118Z,103185.67
2019-03-22T01:02:54.954Z,103187.41
2019-03-22T01:05:24.612Z,103184.38
2019-03-22T01:07:54.304Z,103183.98
2019-03-22T01:10:23.980Z,103186.61
2019-03-22T01:12:53.800Z,103175.35
2019-03-22T01:15:23.547Z,103179.92
2019-03-22T01:17:53.272Z,103182.20
2019-03-22T01:20:23.021Z,103188.59
2019-03-22T01:22:52.794Z,103191.66
2019-03-22T01:25:22.493Z,103185.89
2019-03-22T01:27:52.234Z,103193.51
2019-03-22T01:30:22.040Z,103195.71
2019-03-22T01:32:51.773Z,103184.53
2019-03-22T01:35:21.531Z,103182.78
2019-03-22T01:37:51.275Z,103176.42
2019-03-22T01:40:21.003Z,103170.16
2019-03-22T01:42:50.734Z,103162.96
2019-03-22T01:45:20.519Z,103157.84
2019-03-22T01:47:50.264Z,103163.33
2019-03-22T01:50:19.972Z,103180.13
2019-03-22T01:52:49.717Z,103188.09
2019-03-22T01:55:19.463Z,103187.69
2019-03-22T01:57:53.621Z,103181.41
2019-03-22T02:00:21.138Z,103173.30
2019-03-22T02:02:50.928Z,103171.45
2019-03-22T02:05:20.662Z,103166.19
2019-03-22T02:07:50.368Z,103168.87
2019-03-22T02:10:20.160Z,103165.27
2019-03-22T02:12:49.861Z,103164.99
2019-03-22T02:15:19.623Z,103163.56
2019-03-22T02:17:49.363Z,103172.19
2019-03-22T02:20:19.266Z,103178.52
2019-03-22T02:22:49.065Z,103188.69
2019-03-22T02:25:18.844Z,103190.52
2019-03-22T02:27:48.632Z,103186.89
2019-03-22T02:30:18.942Z,103175.55
2019-03-22T02:32:48.682Z,103174.59
2019-03-22T02:35:28.634Z,103166.17
2019-03-22T02:37:49.895Z,103172.94
2019-03-22T02:40:19.670Z,103180.57
2019-03-22T02:42:49.385Z,103169.39
2019-03-22T02:45:19.105Z,103159.00
2019-03-22T02:47:49.003Z,103161.70
2019-03-22T02:50:19.907Z,103146.47
2019-03-22T02:52:50.213Z,103151.38
2019-03-22T02:55:19.946Z,103151.44
2019-03-22T02:57:49.656Z,103149.20
2019-03-22T03:00:19.626Z,103140.66
2019-03-22T03:02:49.471Z,103146.62
2019-03-22T03:05:19.452Z,103141.98
2019-03-22T03:07:49.169Z,103134.45
2019-03-22T03:10:19.091Z,103136.66
2019-03-22T03:12:51.165Z,103147.91
2019-03-22T03:15:20.904Z,103145.64
2019-03-22T03:17:50.651Z,103144.34
2019-03-22T03:20:20.858Z,103151.98
2019-03-22T03:22:50.604Z,103150.62
2019-03-22T03:25:20.435Z,103150.27
2019-03-22T03:27:50.153Z,103152.13
2019-03-22T03:30:23.200Z,103162.95
2019-03-22T03:32:52.882Z,103170.12
2019-03-22T03:35:22.682Z,103186.14
2019-03-22T03:37:52.543Z,103188.70
2019-03-22T03:40:22.267Z,103193.41
2019-03-22T03:42:51.975Z,103189.05
2019-03-22T03:45:35.487Z,103185.06
2019-03-22T03:48:08.364Z,103185.63
2019-03-22T03:50:38.381Z,103181.95
2019-03-22T03:53:08.205Z,103176.61
2019-03-22T03:55:38.307Z,103178.09
2019-03-22T03:58:07.980Z,103167.27
2019-03-22T04:00:37.730Z,103171.20
2019-03-22T04:03:08.764Z,103165.28
2019-03-22T04:05:38.474Z,103171.20
2019-03-22T04:08:09.772Z,103178.87
2019-03-22T04:10:39.471Z,103190.14
2019-03-22T04:13:09.978Z,103194.53
2019-03-22T04:15:40.040Z,103197.30
2019-03-22T04:18:10.151Z,103193.31
2019-03-22T04:20:42.673Z,103195.52
2019-03-22T04:23:12.382Z,103204.94
2019-03-22T04:25:42.095Z,103206.34
2019-03-22T04:28:11.783Z,103204.06
2019-03-22T04:30:41.585Z,103206.41
2019-03-22T04:33:11.598Z,103203.59
2019-03-22T04:35:42.534Z,103205.91
2019-03-22T04:38:12.906Z,103209.56
2019-03-22T04:40:44.130Z,103206.84
2019-03-22T04:43:15.382Z,103211.27
2019-03-22T04:45:46.228Z,103214.89
2019-03-22T04:48:18.987Z,103213.10
2019-03-22T04:50:51.839Z,103213.10
2019-03-22T04:53:24.348Z,103218.46
2019-03-22T04:55:59.680Z,103212.11
2019-03-22T04:58:32.030Z,103210.83
2019-03-22T05:01:03.215Z,103212.48
2019-03-22T05:03:34.453Z,103219.67
2019-03-22T05:06:06.802Z,103232.82
2019-03-22T05:08:39.551Z,103233.63
2019-03-22T05:11:13.977Z,103238.09
2019-03-22T05:13:46.730Z,103242.64
2019-03-22T05:16:20.103Z,103243.22
2019-03-22T05:18:51.531Z,103250.05
2019-03-22T05:21:24.455Z,103249.19
2019-03-22T05:23:56.939Z,103250.17
2019-03-22T05:26:29.698Z,103246.97
2019-03-22T05:29:00.355Z,103231.62
2019-03-22T05:31:41.836Z,103238.72
2019-03-22T05:34:12.058Z,103247.83
2019-03-22T05:36:41.828Z,103248.07
2019-03-22T05:39:12.522Z,103241.22
2019-03-22T05:41:43.908Z,103239.89
2019-03-22T05:44:15.440Z,103234.53
2019-03-22T05:46:45.900Z,103231.34
2019-03-22T05:49:15.605Z,103234.41
2019-03-22T05:51:45.639Z,103232.75
2019-03-22T05:54:15.393Z,103235.03
2019-03-22T05:56:45.133Z,103236.80
2019-03-22T05:59:14.903Z,103241.92
2019-03-22T06:01:45.494Z,103240.09
2019-03-22T06:04:15.290Z,103246.27
2019-03-22T06:06:45.100Z,103243.95
2019-03-22T06:09:14.795Z,103239.08
2019-03-22T06:11:44.509Z,103241.88
2019-03-22T06:14:14.243Z,103242.22
2019-03-22T06:16:43.968Z,103241.22
2019-03-22T06:19:13.691Z,103234.19
2019-03-22T06:21:43.420Z,103234.69
2019-03-22T06:24:13.103Z,103237.97
2019-03-22T06:26:42.804Z,103239.73
2019-03-22T06:29:12.532Z,103231.55
2019-03-22T06:31:42.220Z,103234.49
2019-03-22T06:34:11.928Z,103236.89
2019-03-22T06:36:43.291Z,103234.47
2019-03-22T06:39:14.863Z,103242.18
2019-03-22T06:41:44.542Z,103247.52
2019-03-22T06:44:14.307Z,103245.22
2019-03-22T06:46:45.254Z,103239.24
2019-03-22T06:49:16.072Z,103243.28
2019-03-22T06:51:46.380Z,103242.27
2019-03-22T06:54:16.098Z,103248.09
2019-03-22T06:56:45.788Z,103243.76
2019-03-22T06:59:15.529Z,103242.91
2019-03-22T07:01:45.210Z,103245.25
2019-03-22T07:04:15.019Z,103240.17
2019-03-22T07:06:44.739Z,103245.09
2019-03-22T07:09:14.435Z,103247.44
2019-03-22T07:11:44.391Z,103232.93
2019-03-22T07:14:14.141Z,103234.13
2019-03-22T07:16:43.917Z,103234.91
2019-03-22T07:19:14.087Z,103235.31
2019-03-22T07:21:43.814Z,103231.42
2019-03-22T07:24:13.569Z,103231.68
2019-03-22T07:26:43.345Z,103228.23
2019-03-22T07:29:13.756Z,103231.52
2019-03-22T07:31:44.984Z,103232.20
2019-03-22T07:34:14.688Z,103230.59
2019-03-22T07:36:46.852Z,103223.50
2019-03-22T07:39:15.996Z,103214.28
2019-03-22T07:41:45.732Z,103213.11
2019-03-22T07:44:16.546Z,103218.77
2019-03-22T07:46:46.256Z,103222.06
2019-03-22T07:49:17.546Z,103226.80
2019-03-22T07:51:47.733Z,103221.10
2019-03-22T07:54:17.524Z,103221.02
2019-03-22T07:56:47.247Z,103215.29
2019-03-22T07:59:16.979Z,103220.78
2019-03-22T08:01:46.742Z,103222.42
2019-03-22T08:04:16.551Z,103220.25
2019-03-22T08:06:46.310Z,103217.49
2019-03-22T08:09:16.164Z,103211.33
2019-03-22T08:11:45.892Z,103206.33
2019-03-22T08:14:16.549Z,103207.34
2019-03-22T08:16:46.308Z,103203.97
2019-03-22T08:19:16.127Z,103203.04
2019-03-22T08:21:45.806Z,103201.94
2019-03-22T08:24:15.537Z,103211.50
2019-03-22T08:26:45.262Z,103212.33
2019-03-22T08:29:15.411Z,103209.64
2019-03-22T08:31:45.141Z,103209.75
2019-03-22T08:34:14.971Z,103205.32
2019-03-22T08:36:44.779Z,103193.97
2019-03-22T08:39:14.708Z,103190.93
2019-03-22T08:41:46.016Z,103191.45
2019-03-22T08:44:16.751Z,103191.02
2019-03-22T08:46:46.862Z,103185.52
2019-03-22T08:49:17.541Z,103185.77
2019-03-22T08:51:49.511Z,103184.33
2019-03-22T08:54:18.870Z,103193.30
2019-03-22T08:56:48.551Z,103195.75
2019-03-22T08:59:18.315Z,103192.27
2019-03-22T09:01:47.995Z,103193.80
2019-03-22T09:04:17.795Z,103188.33
2019-03-22T09:06:47.551Z,103184.77
2019-03-22T09:09:17.355Z,103181.39
2019-03-22T09:11:47.026Z,103180.59
2019-03-22T09:14:16.754Z,103182.39
2019-03-22T09:16:46.471Z,103187.11
2019-03-22T09:19:16.196Z,103177.41
2019-03-22T09:21:45.927Z,103168.52
2019-03-22T09:24:15.664Z,103173.69
2019-03-22T09:26:47.937Z,103172.22
2019-03-22T09:29:16.859Z,103165.02
2019-03-22T09:31:46.634Z,103172.50
2019-03-22T09:34:16.338Z,103176.11
2019-03-22T09:36:46.129Z,103176.69
2019-03-22T09:39:15.902Z,103173.16
2019-03-22T09:41:46.128Z,103175.86
2019-03-22T09:44:17.254Z,103166.21
2019-03-22T09:46:47.501Z,103163.66
2019-03-22T09:49:17.222Z,103159.57
2019-03-22T09:51:48.487Z,103158.73
2019-03-22T09:54:18.263Z,103154.94
2019-03-22T09:56:48.008Z,103153.73
2019-03-22T09:59:17.717Z,103140.06
2019-03-22T10:01:47.473Z,103142.38
2019-03-22T10:04:17.272Z,103140.39
2019-03-22T10:06:47.039Z,103143.25
2019-03-22T10:09:16.772Z,103146.41
2019-03-22T10:11:46.487Z,103132.92
2019-03-22T10:14:16.222Z,103123.21
2019-03-22T10:16:47.594Z,103121.14
2019-03-22T10:19:17.400Z,103122.56
2019-03-22T10:21:47.152Z,103110.58
2019-03-22T10:24:16.880Z,103112.25
2019-03-22T10:26:46.767Z,103105.48
2019-03-22T10:29:16.604Z,103100.10
2019-03-22T10:31:46.342Z,103105.20
2019-03-22T10:34:16.056Z,103107.30
2019-03-22T10:36:46.156Z,103102.94
2019-03-22T10:39:15.871Z,103096.09
2019-03-22T10:41:46.392Z,103094.80
2019-03-22T10:44:17.636Z,103088.66
2019-03-22T10:46:47.380Z,103086.77
2019-03-22T10:49:18.584Z,103086.23
2019-03-22T10:51:57.045Z,103089.50
2019-03-22T10:54:19.815Z,103092.58
2019-03-22T10:56:49.571Z,103093.16
2019-03-22T10:59:19.290Z,103083.56
2019-03-22T11:02:02.525Z,103081.79
2019-03-22T11:04:20.547Z,103078.76
2019-03-22T11:06:50.515Z,103083.46
2019-03-22T11:09:20.249Z,103082.14
2019-03-22T11:11:50.019Z,103079.01
2019-03-22T11:14:19.810Z,103079.60
2019-03-22T11:16:49.619Z,103076.19
2019-03-22T11:19:19.359Z,103075.66
2019-03-22T11:21:49.134Z,103068.53
2019-03-22T11:24:18.869Z,103070.76
2019-03-22T11:26:48.704Z,103075.52
2019-03-22T11:29:18.506Z,103067.06
2019-03-22T11:31:48.406Z,103061.91
2019-03-22T11:34:18.213Z,103056.75
2019-03-22T13:06:39.504Z,102967.45
2019-03-22T13:09:09.310Z,102957.61
2019-03-22T13:11:39.064Z,102965.95
2019-03-22T13:14:08.821Z,102958.53
2019-03-22T13:16:38.553Z,102947.83
2019-03-22T13:19:08.351Z,102945.33
2019-03-22T13:21:38.099Z,102941.66
2019-03-22T13:24:07.855Z,102934.94
2019-03-22T13:26:37.606Z,102935.25
2019-03-22T13:29:07.343Z,102930.08
2019-03-22T13:31:37.083Z,102928.09
2019-03-22T13:34:06.859Z,102922.19
2019-03-22T13:36:36.666Z,102917.14
2019-03-22T13:39:07.867Z,102907.86
2019-03-22T13:41:37.659Z,102910.16
2019-03-22T13:44:07.481Z,102908.72
2019-03-22T13:46:40.628Z,102903.06
2019-03-22T13:49:08.770Z,102898.86
2019-03-22T13:51:38.564Z,102898.11
2019-03-22T13:54:08.285Z,102893.81
2019-03-22T13:56:38.000Z,102889.94
2019-03-22T13:59:07.865Z,102891.85
2019-03-22T14:01:37.582Z,102886.49
2019-03-22T14:04:07.321Z,102886.51
2019-03-22T14:06:37.106Z,102883.48
2019-03-22T14:09:08.383Z,102880.31
2019-03-22T14:11:38.148Z,102872.38
2019-03-22T14:14:07.896Z,102871.10
2019-03-22T14:16:37.632Z,102863.49
2019-03-22T14:19:07.344Z,102857.99
2019-03-22T14:21:37.082Z,102848.91
2019-03-22T14:24:06.942Z,102851.48
2019-03-22T14:26:36.671Z,102846.58
2019-03-22T14:29:07.310Z,102840.48
2019-03-22T14:31:37.134Z,102838.30
2019-03-22T14:34:06.895Z,102829.11
2019-03-22T14:36:40.173Z,102831.00
2019-03-22T14:39:09.994Z,102822.03
2019-03-22T14:41:39.817Z,102820.92
2019-03-22T14:44:09.599Z,102814.60
2019-03-22T14:46:39.327Z,102815.38
2019-03-22T14:49:09.073Z,102807.34
2019-03-22T14:51:38.824Z,102803.04
2019-03-22T14:54:08.578Z,102795.45
2019-03-22T14:56:38.337Z,102790.55
2019-03-22T14:59:08.172Z,102785.81
2019-03-22T15:01:37.923Z,102781.63
2019-03-22T15:04:07.726Z,102773.73
2019-03-22T15:06:37.460Z,102769.88
2019-03-22T15:09:08.145Z,102763.55
2019-03-22T15:11:37.985Z,102760.39
2019-03-22T15:14:09.399Z,102760.80
2019-03-22T15:16:43.500Z,102757.28
2019-03-22T15:19:14.946Z,102755.42
2019-03-22T15:21:52.090Z,102753.08
2019-03-22T15:24:35.570Z,102744.98
2019-03-22T15:27:15.830Z,102741.14
2019-03-22T15:29:47.509Z,102740.11
2019-03-22T15:32:18.924Z,102741.38
2019-03-22T15:35:08.710Z,102740.09
2019-03-22T15:37:56.556Z,102734.80
2019-03-22T15:40:26.297Z,102717.17
2019-03-22T15:42:56.014Z,102717.14
2019-03-22T15:45:25.718Z,102717.32
2019-03-22T15:47:55.529Z,102711.73
2019-03-22T15:50:25.313Z,102713.30
2019-03-22T15:52:55.056Z,102709.11
2019-03-22T15:55:24.776Z,102703.52
2019-03-22T15:57:54.562Z,102711.60
2019-03-22T16:00:24.279Z,102706.88
2019-03-22T16:02:54.085Z,102710.73
2019-03-22T16:05:23.793Z,102708.40
2019-03-22T16:07:53.587Z,102707.11
2019-03-22T16:10:23.370Z,102703.25
2019-03-22T16:12:54.138Z,102699.66
2019-03-22T16:15:23.860Z,102700.29
2019-03-22T16:17:53.574Z,102693.80
2019-03-22T16:20:23.281Z,102692.93
2019-03-22T16:22:53.006Z,102695.56
2019-03-22T16:25:22.735Z,102692.69
2019-03-22T16:27:52.533Z,102688.91
2019-03-22T16:30:22.258Z,102687.79
2019-03-22T16:32:51.994Z,102688.81
2019-03-22T16:35:21.685Z,102685.39
2019-03-22T16:37:51.433Z,102681.70
2019-03-22T16:40:24.337Z,102687.15
2019-03-22T16:42:52.723Z,102679.77
2019-03-22T16:45:41.891Z,102678.80
2019-03-22T16:48:12.826Z,102678.31
2019-03-22T16:50:42.661Z,102677.11
2019-03-22T16:53:12.346Z,102675.89
2019-03-22T16:55:43.863Z,102671.59
2019-03-22T16:58:14.722Z,102670.44
2019-03-22T17:00:49.653Z,102664.08
2019-03-22T17:03:17.473Z,102669.84
2019-03-22T17:05:50.839Z,102662.37
2019-03-22T17:08:21.050Z,102658.56
2019-03-22T17:10:50.788Z,102656.15
2019-03-22T17:13:20.912Z,102655.75
2019-03-22T17:15:50.615Z,102654.50
2019-03-22T17:18:20.364Z,102650.25
2019-03-22T17:20:50.098Z,102648.19
2019-03-22T17:23:20.162Z,102652.12
2019-03-22T17:25:52.893Z,102649.14
2019-03-22T17:28:27.186Z,102652.47
2019-03-22T17:30:57.077Z,102648.48
2019-03-22T17:33:26.893Z,102643.68
2019-03-22T17:35:56.615Z,102645.61
2019-03-22T17:38:26.352Z,102643.59
2019-03-22T17:40:56.072Z,102647.56
2019-03-22T17:43:25.833Z,102644.38
2019-03-22T17:45:55.576Z,102636.96
2019-03-22T17:48:25.326Z,102643.02
2019-03-22T17:50:55.070Z,102629.19
2019-03-22T17:53:24.920Z,102626.52
2019-03-22T17:55:54.652Z,102625.75
2019-03-22T17:58:24.404Z,102623.02
2019-03-22T18:00:54.311Z,102622.19
2019-03-22T18:03:24.046Z,102619.80
2019-03-22T18:05:53.771Z,102611.23
2019-03-22T18:08:23.507Z,102612.53
2019-03-22T18:10:53.247Z,102607.84
2019-03-22T18:13:28.429Z,102604.71
2019-03-22T18:15:58.178Z,102607.45
2019-03-22T18:18:27.936Z,102607.38
2019-03-22T18:20:57.660Z,102607.59
2019-03-22T18:23:35.437Z,102602.84
2019-03-22T18:25:58.885Z,102602.52
2019-03-22T18:28:29.109Z,102604.28
2019-03-22T18:30:58.981Z,102597.47
2019-03-22T18:33:28.675Z,102603.53
2019-03-22T18:35:58.480Z,102601.91
2019-03-22T18:38:28.196Z,102604.13
2019-03-22T18:40:57.971Z,102608.62
2019-03-22T18:43:27.698Z,102613.59
2019-03-22T18:45:58.564Z,102617.72
2019-03-22T18:48:28.383Z,102619.87
2019-03-22T18:50:58.145Z,102611.64
2019-03-22T18:53:27.848Z,102621.01
2019-03-22T18:55:57.633Z,102616.48
2019-03-22T18:58:27.448Z,102624.75
2019-03-22T19:00:57.319Z,102622.34
2019-03-22T19:03:27.041Z,102617.20
2019-03-22T19:05:56.814Z,102611.44
2019-03-22T19:08:26.631Z,102613.75
2019-03-22T19:10:56.379Z,102615.02
2019-03-22T19:13:30.651Z,102613.64
2019-03-22T19:15:58.923Z,102614.39
2019-03-22T19:18:28.839Z,102613.97
2019-03-22T19:20:58.575Z,102614.88
2019-03-22T19:23:28.383Z,102607.77
2019-03-22T19:25:58.898Z,102615.72
2019-03-22T19:28:28.764Z,102615.39
2019-03-22T19:30:58.555Z,102609.92
2019-03-22T19:33:28.410Z,102608.85
2019-03-22T19:36:00.453Z,102602.56
2019-03-22T19:38:30.390Z,102607.04
2019-03-22T19:41:14.108Z,102608.99
2019-03-22T19:43:48.036Z,102601.53
2019-03-22T19:46:18.625Z,102598.12
2019-03-22T19:48:51.389Z,102594.77
2019-03-22T19:51:24.302Z,102582.20
2019-03-22T19:53:57.190Z,102584.50
2019-03-22T19:56:27.849Z,102585.42
2019-03-22T19:58:57.722Z,102578.61
2019-03-22T20:01:30.675Z,102576.67
2019-03-22T20:04:00.500Z,102570.55
2019-03-22T20:06:30.279Z,102564.49
2019-03-22T20:09:00.071Z,102569.01
2019-03-22T20:11:30.196Z,102568.89
2019-03-22T20:14:00.022Z,102569.62
2019-03-22T20:16:29.800Z,102570.95
2019-03-22T20:18:59.577Z,102571.03
2019-03-22T20:21:30.582Z,102567.53
2019-03-22T20:24:05.529Z,102556.94
2019-03-22T20:26:36.127Z,102554.94
2019-03-22T20:29:07.955Z,102556.19
2019-03-22T20:31:37.699Z,102557.88
2019-03-22T20:34:07.477Z,102550.34
2019-03-22T20:36:37.263Z,102548.63
2019-03-22T20:39:07.377Z,102540.80
2019-03-22T20:41:37.507Z,102536.75
2019-03-22T20:44:07.676Z,102533.69
2019-03-22T20:46:37.880Z,102528.77
2019-03-22T20:49:07.906Z,102521.87
2019-03-22T20:51:38.828Z,102524.50
2019-03-22T20:54:08.681Z,102525.65
2019-03-22T20:56:40.820Z,102521.58
2019-03-22T20:59:10.600Z,102510.57
2019-03-22T21:01:41.481Z,102510.62
2019-03-22T21:04:11.257Z,102511.35
2019-03-22T21:06:43.527Z,102519.12
2019-03-22T21:09:13.482Z,102522.20
2019-03-22T21:11:45.244Z,102515.82
2019-03-22T21:14:15.026Z,102523.73
2019-03-22T21:16:44.771Z,102517.20
2019-03-22T21:19:14.516Z,102514.31
2019-03-22T21:21:44.287Z,102513.77
2019-03-22T21:24:14.203Z,102513.95
2019-03-22T21:26:46.688Z,102519.20
2019-03-22T21:29:19.358Z,102514.72
2019-03-22T21:31:49.347Z,102506.58
2019-03-22T21:34:19.173Z,102505.92
2019-03-22T21:36:50.892Z,102496.51
2019-03-22T21:39:20.558Z,102494.75
2019-03-22T21:41:50.321Z,102491.55
2019-03-22T21:44:20.055Z,102486.72
2019-03-22T21:46:49.780Z,102473.00
2019-03-22T21:49:19.526Z,102475.50
2019-03-22T21:51:50.945Z,102471.47
2019-03-22T21:54:20.729Z,102476.77
2019-03-22T21:56:50.481Z,102475.13
2019-03-22T21:59:20.325Z,102470.23
2019-03-22T22:01:51.662Z,102459.93
2019-03-22T22:04:21.444Z,102456.82
2019-03-22T22:06:51.157Z,102450.53
2019-03-22T22:09:20.906Z,102448.64
2019-03-22T22:11:50.598Z,102447.34
2019-03-22T22:14:20.326Z,102441.98
2019-03-22T22:16:50.124Z,102443.51
2019-03-22T22:19:19.878Z,102436.41
2019-03-22T22:21:49.604Z,102433.08
2019-03-22T22:24:19.391Z,102434.15
2019-03-22T22:26:49.156Z,102425.25
2019-03-22T22:29:18.910Z,102421.55
2019-03-22T22:31:48.675Z,102426.33
2019-03-22T22:34:18.400Z,102415.72
2019-03-22T22:36:48.165Z,102423.41
2019-03-22T22:39:17.925Z,102414.47
2019-03-22T22:41:47.706Z,102423.89
2019-03-22T22:44:17.520Z,102420.95
2019-03-22T22:46:47.240Z,102423.59
2019-03-22T22:49:18.812Z,102428.02
2019-03-22T22:51:48.556Z,102417.17
2019-03-22T22:54:18.346Z,102415.22
2019-03-22T22:56:48.095Z,102404.97
2019-03-22T22:59:23.732Z,102406.13
2019-03-22T23:01:54.698Z,102401.47
2019-03-22T23:04:24.427Z,102400.67
2019-03-22T23:06:54.142Z,102394.16
2019-03-22T23:09:23.854Z,102395.64
2019-03-22T23:11:53.598Z,102389.02
2019-03-22T23:14:23.321Z,102392.03
2019-03-22T23:16:53.051Z,102380.45
2019-03-22T23:19:22.836Z,102382.47
2019-03-22T23:21:52.639Z,102377.81
2019-03-22T23:24:22.399Z,102379.30
2019-03-22T23:26:52.187Z,102381.44
2019-03-22T23:29:22.389Z,102377.91
2019-03-22T23:31:52.119Z,102376.84
2019-03-22T23:34:21.879Z,102372.32
2019-03-22T23:36:51.585Z,102373.84
2019-03-22T23:39:21.315Z,102370.84
2019-03-22T23:41:51.039Z,102372.30
2019-03-22T23:44:20.796Z,102363.70
2019-03-22T23:46:50.496Z,102360.84
2019-03-22T23:49:20.213Z,102361.78
2019-03-22T23:51:49.959Z,102368.11
2019-03-22T23:54:19.761Z,102370.41
2019-03-22T23:56:49.477Z,102370.83
2019-03-22T23:59:19.203Z,102371.89
